EZY48TH EGKK-LFMN
Flight info
| Callsign | EZY48TH |
|---|---|
| Flight time | N/A |
| Altitude | 33000 |
| Route | SFD4Z SFD Y47 BENBO L612 HAWKE UL612 VEULE DCT KOTAP DCT KETEX DCT KOTIS DCT KUKOR DCT UTUVA DCT LERGA DCT LIQID DCT LATAM DCT TUNUR DCT NISAR NISAR8R |
| Aircraft | A320/M-SDE3FGHIRWY/LB1 |
Departure
| Time | 2026-05-07 18:06 |
|---|---|
| Airport | London Gatwick Airport (EGKK) |
Arrival
| Time | N/A |
|---|---|
| Airport | Nice-Côte d'Azur Airport (LFMN) |
| Time | Latitude | Longitude | Altitude | Speed | Heading |
|---|---|---|---|---|---|
| 2026-05-07 17:32 | 51.15858 | -0.17956 | 205 ft | 0 kts | 78° |
| 2026-05-07 17:50 | 51.15854 | -0.17988 | 208 ft | 4 kts | 81° |
| 2026-05-07 17:50 | 51.15851 | -0.18031 | 214 ft | 4 kts | 90° |
| 2026-05-07 17:51 | 51.15854 | -0.18071 | 214 ft | 4 kts | 123° |
| 2026-05-07 17:51 | 51.15865 | -0.18087 | 216 ft | 0 kts | 167° |
| 2026-05-07 17:55 | 51.15859 | -0.18086 | 213 ft | 2 kts | 167° |
| 2026-05-07 17:55 | 51.15832 | -0.18076 | 206 ft | 6 kts | 168° |
| 2026-05-07 17:56 | 51.15776 | -0.18057 | 208 ft | 10 kts | 168° |
| 2026-05-07 17:56 | 51.15698 | -0.18050 | 216 ft | 12 kts | 212° |
| 2026-05-07 17:56 | 51.15675 | -0.18128 | 212 ft | 11 kts | 258° |
| 2026-05-07 17:57 | 51.15626 | -0.18491 | 205 ft | 15 kts | 258° |
| 2026-05-07 17:57 | 51.15592 | -0.18736 | 208 ft | 14 kts | 257° |
| 2026-05-07 17:57 | 51.15534 | -0.18822 | 205 ft | 13 kts | 174° |
| 2026-05-07 17:58 | 51.15436 | -0.18783 | 205 ft | 16 kts | 160° |
| 2026-05-07 17:58 | 51.15332 | -0.18751 | 205 ft | 15 kts | 174° |
| 2026-05-07 17:58 | 51.15239 | -0.18719 | 208 ft | 10 kts | 167° |
| 2026-05-07 17:58 | 51.15177 | -0.18698 | 208 ft | 0 kts | 169° |
| 2026-05-07 17:59 | 51.15153 | -0.18702 | 205 ft | 6 kts | 196° |
| 2026-05-07 17:59 | 51.15130 | -0.18740 | 211 ft | 4 kts | 244° |
| 2026-05-07 18:00 | 51.15122 | -0.18787 | 209 ft | 6 kts | 259° |
| 2026-05-07 18:00 | 51.15110 | -0.18877 | 210 ft | 11 kts | 258° |
| 2026-05-07 18:00 | 51.15091 | -0.19016 | 206 ft | 15 kts | 256° |
| 2026-05-07 18:00 | 51.15065 | -0.19204 | 206 ft | 20 kts | 258° |
| 2026-05-07 18:01 | 51.15036 | -0.19395 | 209 ft | 16 kts | 261° |
| 2026-05-07 18:01 | 51.15019 | -0.19537 | 209 ft | 12 kts | 256° |
| 2026-05-07 18:01 | 51.15003 | -0.19656 | 210 ft | 10 kts | 258° |
| 2026-05-07 18:01 | 51.14989 | -0.19755 | 207 ft | 9 kts | 258° |
| 2026-05-07 18:02 | 51.14967 | -0.19917 | 209 ft | 7 kts | 257° |
| 2026-05-07 18:02 | 51.14957 | -0.19989 | 216 ft | 7 kts | 257° |
| 2026-05-07 18:02 | 51.14943 | -0.20090 | 206 ft | 10 kts | 257° |
| 2026-05-07 18:03 | 51.14929 | -0.20188 | 211 ft | 10 kts | 257° |
| 2026-05-07 18:03 | 51.14903 | -0.20382 | 206 ft | 24 kts | 258° |
| 2026-05-07 18:03 | 51.14872 | -0.20593 | 211 ft | 17 kts | 246° |
| 2026-05-07 18:03 | 51.14777 | -0.20697 | 212 ft | 17 kts | 222° |
| 2026-05-07 18:04 | 51.14742 | -0.20873 | 209 ft | 16 kts | 257° |
| 2026-05-07 18:04 | 51.14720 | -0.21035 | 210 ft | 14 kts | 258° |
| 2026-05-07 18:04 | 51.14700 | -0.21186 | 207 ft | 14 kts | 258° |
| 2026-05-07 18:04 | 51.14661 | -0.21327 | 210 ft | 16 kts | 206° |
| 2026-05-07 18:05 | 51.14553 | -0.21290 | 215 ft | 17 kts | 144° |
| 2026-05-07 18:05 | 51.14523 | -0.21132 | 211 ft | 11 kts | 77° |
| 2026-05-07 18:05 | 51.14525 | -0.21122 | 217 ft | 0 kts | 77° |
| 2026-05-07 18:06 | 51.14555 | -0.20901 | 214 ft | 56 kts | 78° |
| 2026-05-07 18:06 | 51.14680 | -0.20001 | 207 ft | 116 kts | 77° |
| 2026-05-07 18:06 | 51.14895 | -0.18424 | 224 ft | 165 kts | 78° |
| 2026-05-07 18:06 | 51.15140 | -0.16687 | 842 ft | 160 kts | 81° |
| 2026-05-07 18:07 | 51.15378 | -0.14947 | 1511 ft | 160 kts | 80° |
| 2026-05-07 18:07 | 51.15615 | -0.13206 | 2154 ft | 162 kts | 80° |
| 2026-05-07 18:07 | 51.15852 | -0.11451 | 2751 ft | 162 kts | 79° |
| 2026-05-07 18:07 | 51.16093 | -0.09696 | 3323 ft | 162 kts | 78° |
| 2026-05-07 18:08 | 51.16262 | -0.07949 | 3850 ft | 164 kts | 96° |
| 2026-05-07 18:08 | 51.15811 | -0.06211 | 4103 ft | 183 kts | 134° |
| 2026-05-07 18:08 | 51.14653 | -0.05228 | 4397 ft | 201 kts | 167° |
| 2026-05-07 18:08 | 51.13209 | -0.04766 | 4657 ft | 224 kts | 167° |
| 2026-05-07 18:09 | 51.11597 | -0.04237 | 4969 ft | 248 kts | 167° |
| 2026-05-07 18:09 | 51.09844 | -0.03645 | 5476 ft | 264 kts | 167° |
| 2026-05-07 18:09 | 51.08025 | -0.02958 | 5905 ft | 271 kts | 164° |
| 2026-05-07 18:09 | 51.06195 | -0.02270 | 5999 ft | 271 kts | 174° |
| 2026-05-07 18:10 | 51.04299 | -0.02226 | 6445 ft | 274 kts | 181° |
| 2026-05-07 18:10 | 51.02393 | -0.02311 | 7316 ft | 275 kts | 181° |
| 2026-05-07 18:10 | 51.00477 | -0.02373 | 8207 ft | 276 kts | 181° |
| 2026-05-07 18:10 | 50.98553 | -0.02403 | 9054 ft | 278 kts | 181° |
| 2026-05-07 18:11 | 50.96612 | -0.02413 | 9888 ft | 281 kts | 181° |
| 2026-05-07 18:11 | 50.95305 | -0.02407 | 10281 ft | 289 kts | 181° |
| 2026-05-07 18:11 | 50.92480 | -0.02399 | 10592 ft | 318 kts | 181° |
| 2026-05-07 18:11 | 50.90234 | -0.02367 | 11156 ft | 326 kts | 180° |
| 2026-05-07 18:12 | 50.87986 | -0.02244 | 11844 ft | 330 kts | 179° |
| 2026-05-07 18:12 | 50.85684 | -0.02067 | 12567 ft | 333 kts | 178° |
| 2026-05-07 18:12 | 50.83350 | -0.01869 | 13285 ft | 337 kts | 178° |
| 2026-05-07 18:12 | 50.81004 | -0.01670 | 13981 ft | 340 kts | 178° |
| 2026-05-07 18:13 | 50.78628 | -0.01477 | 14588 ft | 344 kts | 178° |
| 2026-05-07 18:13 | 50.76227 | -0.01287 | 15191 ft | 347 kts | 178° |
| 2026-05-07 18:13 | 50.73804 | -0.01101 | 15792 ft | 350 kts | 179° |
| 2026-05-07 18:13 | 50.71357 | -0.00919 | 16385 ft | 354 kts | 179° |
| 2026-05-07 18:14 | 50.69726 | -0.00799 | 16782 ft | 356 kts | 179° |
| 2026-05-07 18:14 | 50.67244 | -0.00617 | 17374 ft | 359 kts | 179° |
| 2026-05-07 18:14 | 50.64733 | -0.00431 | 17960 ft | 362 kts | 179° |
| 2026-05-07 18:14 | 50.62202 | -0.00242 | 18519 ft | 366 kts | 179° |
| 2026-05-07 18:15 | 50.59651 | -0.00055 | 19036 ft | 368 kts | 179° |
| 2026-05-07 18:15 | 50.57081 | 0.00134 | 19567 ft | 371 kts | 179° |
| 2026-05-07 18:15 | 50.54494 | 0.00328 | 20098 ft | 373 kts | 179° |
| 2026-05-07 18:15 | 50.51893 | 0.00522 | 20629 ft | 376 kts | 179° |
| 2026-05-07 18:16 | 50.49271 | 0.00713 | 21154 ft | 378 kts | 179° |
| 2026-05-07 18:16 | 50.46636 | 0.00943 | 21675 ft | 382 kts | 175° |
| 2026-05-07 18:16 | 50.44080 | 0.02147 | 22165 ft | 390 kts | 154° |
| 2026-05-07 18:16 | 50.41759 | 0.04405 | 22667 ft | 394 kts | 149° |
| 2026-05-07 18:17 | 50.39461 | 0.06775 | 23166 ft | 397 kts | 149° |
| 2026-05-07 18:17 | 50.37182 | 0.09165 | 23646 ft | 400 kts | 148° |
| 2026-05-07 18:17 | 50.34864 | 0.11605 | 24038 ft | 403 kts | 148° |
| 2026-05-07 18:17 | 50.32529 | 0.14047 | 24432 ft | 405 kts | 149° |
| 2026-05-07 18:18 | 50.30176 | 0.16490 | 24816 ft | 407 kts | 149° |
| 2026-05-07 18:18 | 50.27809 | 0.18937 | 25196 ft | 409 kts | 149° |
| 2026-05-07 18:18 | 50.25417 | 0.21396 | 25565 ft | 412 kts | 149° |
| 2026-05-07 18:18 | 50.23020 | 0.23849 | 25924 ft | 414 kts | 149° |
| 2026-05-07 18:19 | 50.20603 | 0.26317 | 26279 ft | 416 kts | 149° |
| 2026-05-07 18:19 | 50.18177 | 0.28800 | 26644 ft | 418 kts | 149° |
| 2026-05-07 18:19 | 50.15746 | 0.31295 | 26996 ft | 420 kts | 149° |
| 2026-05-07 18:19 | 50.13300 | 0.33808 | 27332 ft | 422 kts | 149° |